sensor_id;sensor_type;location;lat;lon;timestamp;P1;durP1;ratioP1;P2;durP2;ratioP2
1959;SDS011;980;43.794;11.212;2022-12-07T06:49:54;45.00;;;37.00;;
1959;SDS011;980;43.794;11.212;2022-12-07T06:52:19;48.00;;;39.33;;
1959;SDS011;980;43.794;11.212;2022-12-07T06:54:44;43.00;;;37.00;;
1959;SDS011;980;43.794;11.212;2022-12-07T06:57:10;46.00;;;38.67;;
1959;SDS011;980;43.794;11.212;2022-12-07T06:59:35;39.00;;;37.00;;
1959;SDS011;980;43.794;11.212;2022-12-07T07:02:00;40.00;;;34.25;;
1959;SDS011;980;43.794;11.212;2022-12-07T07:04:25;38.50;;;34.75;;
1959;SDS011;980;43.794;11.212;2022-12-07T07:06:51;48.25;;;40.00;;
1959;SDS011;980;43.794;11.212;2022-12-07T07:09:16;42.00;;;40.00;;
1959;SDS011;980;43.794;11.212;2022-12-07T07:11:41;39.00;;;33.25;;
1959;SDS011;980;43.794;11.212;2022-12-07T07:14:06;47.50;;;42.00;;
1959;SDS011;980;43.794;11.212;2022-12-07T07:16:32;51.33;;;44.00;;
1959;SDS011;980;43.794;11.212;2022-12-07T07:18:57;45.67;;;44.00;;
1959;SDS011;980;43.794;11.212;2022-12-07T07:21:22;52.33;;;43.67;;
1959;SDS011;980;43.794;11.212;2022-12-07T07:23:48;41.00;;;37.00;;
1959;SDS011;980;43.794;11.212;2022-12-07T07:26:13;38.00;;;35.25;;
1959;SDS011;980;43.794;11.212;2022-12-07T07:28:38;40.50;;;37.00;;
1959;SDS011;980;43.794;11.212;2022-12-07T07:31:03;44.00;;;38.25;;
1959;SDS011;980;43.794;11.212;2022-12-07T07:33:29;43.75;;;36.75;;
1959;SDS011;980;43.794;11.212;2022-12-07T07:35:54;50.25;;;43.25;;
1959;SDS011;980;43.794;11.212;2022-12-07T07:38:19;48.25;;;39.50;;
1959;SDS011;980;43.794;11.212;2022-12-07T07:40:45;49.25;;;43.25;;
1959;SDS011;980;43.794;11.212;2022-12-07T07:43:10;47.00;;;43.00;;
1959;SDS011;980;43.794;11.212;2022-12-07T07:45:36;52.75;;;44.25;;
1959;SDS011;980;43.794;11.212;2022-12-07T07:48:01;55.00;;;45.00;;
1959;SDS011;980;43.794;11.212;2022-12-07T07:50:26;44.50;;;41.50;;
1959;SDS011;980;43.794;11.212;2022-12-07T07:52:51;49.33;;;43.33;;
1959;SDS011;980;43.794;11.212;2022-12-07T07:55:17;59.00;;;47.33;;
1959;SDS011;980;43.794;11.212;2022-12-07T07:57:42;61.00;;;49.00;;
1959;SDS011;980;43.794;11.212;2022-12-07T08:00:09;61.00;;;47.33;;
1959;SDS011;980;43.794;11.212;2022-12-07T08:02:35;68.00;;;53.33;;
1959;SDS011;980;43.794;11.212;2022-12-07T08:05:00;61.00;;;49.33;;
1959;SDS011;980;43.794;11.212;2022-12-07T08:07:26;62.67;;;49.00;;
1959;SDS011;980;43.794;11.212;2022-12-07T08:09:52;64.00;;;49.67;;
1959;SDS011;980;43.794;11.212;2022-12-07T08:12:17;64.67;;;49.67;;
1959;SDS011;980;43.794;11.212;2022-12-07T08:14:42;64.67;;;52.33;;
1959;SDS011;980;43.794;11.212;2022-12-07T08:17:08;62.67;;;48.33;;
1959;SDS011;980;43.794;11.212;2022-12-07T08:19:33;64.67;;;52.33;;
1959;SDS011;980;43.794;11.212;2022-12-07T08:21:59;68.00;;;55.67;;
1959;SDS011;980;43.794;11.212;2022-12-07T08:24:24;60.67;;;49.00;;
1959;SDS011;980;43.794;11.212;2022-12-07T08:26:50;71.00;;;55.33;;
1959;SDS011;980;43.794;11.212;2022-12-07T08:29:15;68.00;;;54.33;;
1959;SDS011;980;43.794;11.212;2022-12-07T08:31:40;61.67;;;51.33;;
1959;SDS011;980;43.794;11.212;2022-12-07T08:34:06;66.00;;;53.00;;
1959;SDS011;980;43.794;11.212;2022-12-07T08:36:31;60.67;;;51.33;;
1959;SDS011;980;43.794;11.212;2022-12-07T08:38:56;66.00;;;52.67;;
1959;SDS011;980;43.794;11.212;2022-12-07T08:41:21;64.33;;;52.67;;
1959;SDS011;980;43.794;11.212;2022-12-07T08:43:47;69.67;;;52.33;;
1959;SDS011;980;43.794;11.212;2022-12-07T08:48:41;71.33;;;54.33;;
1959;SDS011;980;43.794;11.212;2022-12-07T08:51:09;71.67;;;54.00;;
1959;SDS011;980;43.794;11.212;2022-12-07T08:53:35;66.00;;;53.33;;
1959;SDS011;980;43.794;11.212;2022-12-07T08:56:02;65.00;;;51.67;;
1959;SDS011;980;43.794;11.212;2022-12-07T08:58:27;62.00;;;50.67;;
1959;SDS011;980;43.794;11.212;2022-12-07T09:00:52;72.00;;;54.67;;
1959;SDS011;980;43.794;11.212;2022-12-07T09:03:18;62.33;;;47.33;;
1959;SDS011;980;43.794;11.212;2022-12-07T09:05:43;64.00;;;47.33;;
1959;SDS011;980;43.794;11.212;2022-12-07T09:08:08;61.00;;;47.00;;
1959;SDS011;980;43.794;11.212;2022-12-07T09:10:34;59.33;;;47.00;;
1959;SDS011;980;43.794;11.212;2022-12-07T09:12:59;59.33;;;47.00;;
1959;SDS011;980;43.794;11.212;2022-12-07T09:15:28;51.75;;;42.75;;
1959;SDS011;980;43.794;11.212;2022-12-07T09:17:53;46.00;;;40.75;;
1959;SDS011;980;43.794;11.212;2022-12-07T09:20:18;57.25;;;44.00;;
1959;SDS011;980;43.794;11.212;2022-12-07T09:22:44;47.25;;;42.75;;
1959;SDS011;980;43.794;11.212;2022-12-07T09:25:09;38.75;;;38.50;;
1959;SDS011;980;43.794;11.212;2022-12-07T09:27:34;43.50;;;37.00;;
1959;SDS011;980;43.794;11.212;2022-12-07T09:30:00;46.50;;;42.25;;
1959;SDS011;980;43.794;11.212;2022-12-07T09:32:25;44.75;;;40.75;;
1959;SDS011;980;43.794;11.212;2022-12-07T09:34:51;42.25;;;35.25;;
1959;SDS011;980;43.794;11.212;2022-12-07T09:37:16;50.00;;;40.00;;
1959;SDS011;980;43.794;11.212;2022-12-07T09:39:41;41.75;;;38.75;;
1959;SDS011;980;43.794;11.212;2022-12-07T09:42:06;50.75;;;41.25;;
1959;SDS011;980;43.794;11.212;2022-12-07T09:44:32;48.25;;;40.75;;
1959;SDS011;980;43.794;11.212;2022-12-07T09:46:58;53.25;;;43.00;;
1959;SDS011;980;43.794;11.212;2022-12-07T09:49:25;40.00;;;32.25;;
1959;SDS011;980;43.794;11.212;2022-12-07T09:52:03;42.75;;;35.50;;
1959;SDS011;980;43.794;11.212;2022-12-07T09:54:29;39.25;;;35.25;;
1959;SDS011;980;43.794;11.212;2022-12-07T09:56:55;39.25;;;38.00;;
1959;SDS011;980;43.794;11.212;2022-12-07T09:59:21;41.50;;;38.50;;
1959;SDS011;980;43.794;11.212;2022-12-07T10:01:47;40.25;;;39.50;;
1959;SDS011;980;43.794;11.212;2022-12-07T10:04:18;42.50;;;38.50;;
1959;SDS011;980;43.794;11.212;2022-12-07T10:06:43;16.25;;;6.50;;
1959;SDS011;980;43.794;11.212;2022-12-07T10:09:14;38.25;;;31.00;;
1959;SDS011;980;43.794;11.212;2022-12-07T10:14:24;40.50;;;29.75;;
1959;SDS011;980;43.794;11.212;2022-12-07T10:16:51;36.00;;;33.00;;
1959;SDS011;980;43.794;11.212;2022-12-07T10:19:22;32.75;;;28.00;;
1959;SDS011;980;43.794;11.212;2022-12-07T10:22:01;29.50;;;28.00;;
1959;SDS011;980;43.794;11.212;2022-12-07T10:24:26;40.75;;;32.25;;
1959;SDS011;980;43.794;11.212;2022-12-07T10:26:52;37.25;;;30.75;;
1959;SDS011;980;43.794;11.212;2022-12-07T10:29:28;40.00;;;31.25;;
1959;SDS011;980;43.794;11.212;2022-12-07T10:31:56;33.75;;;33.25;;
1959;SDS011;980;43.794;11.212;2022-12-07T10:36:49;37.75;;;35.00;;
1959;SDS011;980;43.794;11.212;2022-12-07T10:39:19;41.75;;;33.50;;
1959;SDS011;980;43.794;11.212;2022-12-07T10:42:02;41.25;;;32.50;;
1959;SDS011;980;43.794;11.212;2022-12-07T10:44:31;38.25;;;34.25;;
1959;SDS011;980;43.794;11.212;2022-12-07T10:54:48;35.75;;;28.00;;
1959;SDS011;980;43.794;11.212;2022-12-07T10:57:28;42.75;;;31.75;;
1959;SDS011;980;43.794;11.212;2022-12-07T11:05:11;40.00;;;31.50;;
1959;SDS011;980;43.794;11.212;2022-12-07T11:10:19;32.50;;;29.00;;
1959;SDS011;980;43.794;11.212;2022-12-07T11:12:52;32.75;;;31.50;;
1959;SDS011;980;43.794;11.212;2022-12-07T11:23:17;30.25;;;24.00;;
1959;SDS011;980;43.794;11.212;2022-12-07T11:25:49;24.50;;;22.50;;
1959;SDS011;980;43.794;11.212;2022-12-07T11:28:29;23.75;;;21.50;;
1959;SDS011;980;43.794;11.212;2022-12-07T11:33:44;22.50;;;21.00;;
1959;SDS011;980;43.794;11.212;2022-12-07T11:41:08;23.00;;;19.75;;
1959;SDS011;980;43.794;11.212;2022-12-07T11:43:50;19.50;;;16.50;;
1959;SDS011;980;43.794;11.212;2022-12-07T11:46:17;16.00;;;16.00;;
1959;SDS011;980;43.794;11.212;2022-12-07T11:48:45;20.00;;;18.00;;
1959;SDS011;980;43.794;11.212;2022-12-07T11:51:12;20.00;;;19.00;;
1959;SDS011;980;43.794;11.212;2022-12-07T11:56:13;21.75;;;19.00;;
1959;SDS011;980;43.794;11.212;2022-12-07T11:58:41;19.00;;;19.00;;
1959;SDS011;980;43.794;11.212;2022-12-07T12:01:14;26.00;;;21.00;;
1959;SDS011;980;43.794;11.212;2022-12-07T12:03:46;19.25;;;16.75;;
1959;SDS011;980;43.794;11.212;2022-12-07T12:06:12;20.00;;;17.75;;
1959;SDS011;980;43.794;11.212;2022-12-07T12:08:47;21.25;;;18.50;;
1959;SDS011;980;43.794;11.212;2022-12-07T12:21:19;24.25;;;20.50;;
1959;SDS011;980;43.794;11.212;2022-12-07T12:23:48;27.00;;;24.00;;
1959;SDS011;980;43.794;11.212;2022-12-07T12:26:17;24.00;;;21.25;;
1959;SDS011;980;43.794;11.212;2022-12-07T12:31:16;29.00;;;28.25;;
1959;SDS011;980;43.794;11.212;2022-12-07T12:33:57;30.00;;;26.75;;
1959;SDS011;980;43.794;11.212;2022-12-07T12:51:48;24.75;;;22.50;;
1959;SDS011;980;43.794;11.212;2022-12-07T12:54:15;13.75;;;13.50;;
1959;SDS011;980;43.794;11.212;2022-12-07T12:56:48;13.25;;;13.00;;
1959;SDS011;980;43.794;11.212;2022-12-07T12:59:26;14.25;;;11.00;;
1959;SDS011;980;43.794;11.212;2022-12-07T13:01:54;12.50;;;11.00;;
1959;SDS011;980;43.794;11.212;2022-12-07T13:06:48;16.50;;;12.25;;
1959;SDS011;980;43.794;11.212;2022-12-07T13:09:18;12.50;;;12.25;;
1959;SDS011;980;43.794;11.212;2022-12-07T13:11:46;12.50;;;9.00;;
1959;SDS011;980;43.794;11.212;2022-12-07T13:16:55;11.75;;;10.75;;
1959;SDS011;980;43.794;11.212;2022-12-07T13:19:52;14.00;;;12.75;;
1959;SDS011;980;43.794;11.212;2022-12-07T13:24:56;11.00;;;11.00;;
1959;SDS011;980;43.794;11.212;2022-12-07T13:27:22;17.25;;;12.25;;
1959;SDS011;980;43.794;11.212;2022-12-07T13:29:49;11.50;;;9.25;;
1959;SDS011;980;43.794;11.212;2022-12-07T13:32:25;15.50;;;10.00;;
1959;SDS011;980;43.794;11.212;2022-12-07T13:34:50;11.00;;;11.00;;
1959;SDS011;980;43.794;11.212;2022-12-07T13:37:29;14.50;;;12.00;;
1959;SDS011;980;43.794;11.212;2022-12-07T13:40:05;13.00;;;11.75;;
1959;SDS011;980;43.794;11.212;2022-12-07T13:42:41;13.75;;;12.00;;
1959;SDS011;980;43.794;11.212;2022-12-07T13:48:14;10.00;;;10.00;;
1959;SDS011;980;43.794;11.212;2022-12-07T13:50:41;12.00;;;11.00;;
1959;SDS011;980;43.794;11.212;2022-12-07T13:53:07;7.00;;;7.00;;
1959;SDS011;980;43.794;11.212;2022-12-07T13:55:36;5.50;;;4.00;;
1959;SDS011;980;43.794;11.212;2022-12-07T13:58:09;10.00;;;10.00;;
1959;SDS011;980;43.794;11.212;2022-12-07T14:00:34;8.25;;;6.75;;
1959;SDS011;980;43.794;11.212;2022-12-07T14:05:29;12.00;;;11.00;;
1959;SDS011;980;43.794;11.212;2022-12-07T14:07:56;8.25;;;8.25;;
1959;SDS011;980;43.794;11.212;2022-12-07T14:10:23;7.00;;;7.00;;
1959;SDS011;980;43.794;11.212;2022-12-07T14:12:49;10.50;;;5.00;;
1959;SDS011;980;43.794;11.212;2022-12-07T14:15:19;8.25;;;6.00;;
1959;SDS011;980;43.794;11.212;2022-12-07T14:20:29;7.00;;;7.00;;
1959;SDS011;980;43.794;11.212;2022-12-07T14:22:55;6.00;;;5.00;;
1959;SDS011;980;43.794;11.212;2022-12-07T14:25:27;8.75;;;7.50;;
1959;SDS011;980;43.794;11.212;2022-12-07T14:27:54;8.25;;;7.00;;
1959;SDS011;980;43.794;11.212;2022-12-07T14:30:32;10.25;;;8.50;;
1959;SDS011;980;43.794;11.212;2022-12-07T14:32:59;8.50;;;7.00;;
1959;SDS011;980;43.794;11.212;2022-12-07T14:35:25;5.75;;;4.50;;
1959;SDS011;980;43.794;11.212;2022-12-07T14:37:51;7.00;;;7.00;;
1959;SDS011;980;43.794;11.212;2022-12-07T14:40:19;4.00;;;4.00;;
1959;SDS011;980;43.794;11.212;2022-12-07T14:42:46;8.50;;;7.25;;
1959;SDS011;980;43.794;11.212;2022-12-07T14:45:13;7.00;;;6.00;;
1959;SDS011;980;43.794;11.212;2022-12-07T14:47:39;8.25;;;7.25;;
1959;SDS011;980;43.794;11.212;2022-12-07T14:50:05;7.00;;;7.00;;
1959;SDS011;980;43.794;11.212;2022-12-07T14:52:30;8.75;;;7.00;;
1959;SDS011;980;43.794;11.212;2022-12-07T14:54:55;7.00;;;7.00;;
1959;SDS011;980;43.794;11.212;2022-12-07T14:57:21;6.00;;;6.00;;
1959;SDS011;980;43.794;11.212;2022-12-07T14:59:46;9.75;;;6.75;;
1959;SDS011;980;43.794;11.212;2022-12-07T15:02:12;7.00;;;6.00;;
1959;SDS011;980;43.794;11.212;2022-12-07T15:04:37;4.25;;;4.25;;
1959;SDS011;980;43.794;11.212;2022-12-07T15:07:04;8.75;;;6.50;;
1959;SDS011;980;43.794;11.212;2022-12-07T15:09:30;6.50;;;5.75;;
1959;SDS011;980;43.794;11.212;2022-12-07T15:11:55;7.50;;;7.50;;
1959;SDS011;980;43.794;11.212;2022-12-07T15:14:20;5.50;;;5.50;;
1959;SDS011;980;43.794;11.212;2022-12-07T15:16:45;11.25;;;8.75;;
1959;SDS011;980;43.794;11.212;2022-12-07T15:19:12;8.25;;;7.50;;
1959;SDS011;980;43.794;11.212;2022-12-07T15:21:37;8.25;;;6.75;;
1959;SDS011;980;43.794;11.212;2022-12-07T15:24:02;10.00;;;7.50;;
1959;SDS011;980;43.794;11.212;2022-12-07T15:26:28;8.00;;;8.00;;
1959;SDS011;980;43.794;11.212;2022-12-07T15:28:53;7.75;;;6.75;;
1959;SDS011;980;43.794;11.212;2022-12-07T15:31:19;7.75;;;6.50;;
1959;SDS011;980;43.794;11.212;2022-12-07T15:33:44;6.50;;;6.50;;
1959;SDS011;980;43.794;11.212;2022-12-07T15:36:15;6.25;;;5.25;;
1959;SDS011;980;43.794;11.212;2022-12-07T15:38:43;7.25;;;5.00;;
1959;SDS011;980;43.794;11.212;2022-12-07T15:41:08;7.50;;;6.25;;
1959;SDS011;980;43.794;11.212;2022-12-07T15:43:33;7.00;;;7.00;;
1959;SDS011;980;43.794;11.212;2022-12-07T15:46:17;7.75;;;7.75;;
1959;SDS011;980;43.794;11.212;2022-12-07T15:48:42;9.75;;;6.75;;
1959;SDS011;980;43.794;11.212;2022-12-07T16:58:59;24.00;;;19.50;;
1959;SDS011;980;43.794;11.212;2022-12-07T17:01:25;19.00;;;17.00;;
1959;SDS011;980;43.794;11.212;2022-12-07T17:03:53;25.00;;;23.25;;
1959;SDS011;980;43.794;11.212;2022-12-07T17:06:20;21.75;;;18.50;;
1959;SDS011;980;43.794;11.212;2022-12-07T17:08:46;27.50;;;21.50;;
1959;SDS011;980;43.794;11.212;2022-12-07T17:11:12;24.25;;;22.50;;
1959;SDS011;980;43.794;11.212;2022-12-07T17:13:37;43.25;;;38.50;;
1959;SDS011;980;43.794;11.212;2022-12-07T17:16:21;41.25;;;37.25;;
1959;SDS011;980;43.794;11.212;2022-12-07T17:18:46;38.50;;;32.25;;
1959;SDS011;980;43.794;11.212;2022-12-07T17:21:12;39.00;;;33.25;;
1959;SDS011;980;43.794;11.212;2022-12-07T17:23:37;50.00;;;39.50;;
1959;SDS011;980;43.794;11.212;2022-12-07T17:28:31;27.75;;;25.50;;
1959;SDS011;980;43.794;11.212;2022-12-07T17:30:56;33.50;;;29.25;;
1959;SDS011;980;43.794;11.212;2022-12-07T17:33:21;27.75;;;25.50;;
1959;SDS011;980;43.794;11.212;2022-12-07T17:35:46;27.00;;;24.25;;
1959;SDS011;980;43.794;11.212;2022-12-07T17:38:12;26.00;;;20.00;;
1959;SDS011;980;43.794;11.212;2022-12-07T17:40:38;23.75;;;20.25;;
1959;SDS011;980;43.794;11.212;2022-12-07T17:43:03;44.25;;;39.00;;
1959;SDS011;980;43.794;11.212;2022-12-07T17:45:28;60.00;;;48.00;;
1959;SDS011;980;43.794;11.212;2022-12-07T17:47:54;24.00;;;21.50;;
1959;SDS011;980;43.794;11.212;2022-12-07T17:50:19;36.50;;;30.00;;
1959;SDS011;980;43.794;11.212;2022-12-07T17:53:04;30.50;;;28.50;;
1959;SDS011;980;43.794;11.212;2022-12-07T17:55:35;18.75;;;16.50;;
1959;SDS011;980;43.794;11.212;2022-12-07T17:58:01;34.75;;;32.25;;
1959;SDS011;980;43.794;11.212;2022-12-07T18:00:26;33.25;;;31.50;;
1959;SDS011;980;43.794;11.212;2022-12-07T18:02:51;27.25;;;25.00;;
1959;SDS011;980;43.794;11.212;2022-12-07T18:05:16;31.50;;;28.25;;
1959;SDS011;980;43.794;11.212;2022-12-07T18:07:42;25.25;;;23.00;;
1959;SDS011;980;43.794;11.212;2022-12-07T18:10:07;27.00;;;24.00;;
1959;SDS011;980;43.794;11.212;2022-12-07T18:12:33;23.25;;;21.00;;
1959;SDS011;980;43.794;11.212;2022-12-07T18:14:58;29.00;;;27.00;;
1959;SDS011;980;43.794;11.212;2022-12-07T18:17:24;27.25;;;27.25;;
1959;SDS011;980;43.794;11.212;2022-12-07T18:19:49;29.00;;;25.50;;
1959;SDS011;980;43.794;11.212;2022-12-07T18:22:14;31.25;;;29.00;;
1959;SDS011;980;43.794;11.212;2022-12-07T18:24:39;27.75;;;24.50;;
1959;SDS011;980;43.794;11.212;2022-12-07T18:27:05;20.75;;;19.75;;
1959;SDS011;980;43.794;11.212;2022-12-07T18:29:30;24.75;;;24.25;;
1959;SDS011;980;43.794;11.212;2022-12-07T18:31:56;25.50;;;23.25;;
1959;SDS011;980;43.794;11.212;2022-12-07T18:34:21;23.00;;;22.50;;
1959;SDS011;980;43.794;11.212;2022-12-07T18:36:47;27.25;;;24.00;;
1959;SDS011;980;43.794;11.212;2022-12-07T18:39:17;21.25;;;19.00;;
1959;SDS011;980;43.794;11.212;2022-12-07T18:41:43;27.25;;;23.75;;
1959;SDS011;980;43.794;11.212;2022-12-07T18:44:08;30.50;;;26.50;;
1959;SDS011;980;43.794;11.212;2022-12-07T18:46:34;29.50;;;28.00;;
1959;SDS011;980;43.794;11.212;2022-12-07T18:48:59;31.25;;;29.50;;
1959;SDS011;980;43.794;11.212;2022-12-07T18:51:25;36.50;;;29.00;;
1959;SDS011;980;43.794;11.212;2022-12-07T18:53:50;34.25;;;31.50;;
1959;SDS011;980;43.794;11.212;2022-12-07T18:56:17;39.50;;;36.00;;
1959;SDS011;980;43.794;11.212;2022-12-07T18:58:43;36.25;;;29.75;;
1959;SDS011;980;43.794;11.212;2022-12-07T19:01:27;32.00;;;28.75;;
1959;SDS011;980;43.794;11.212;2022-12-07T19:03:54;27.50;;;24.50;;
1959;SDS011;980;43.794;11.212;2022-12-07T19:06:19;36.75;;;29.25;;
1959;SDS011;980;43.794;11.212;2022-12-07T19:08:44;30.00;;;30.00;;
1959;SDS011;980;43.794;11.212;2022-12-07T19:11:16;40.75;;;37.00;;
1959;SDS011;980;43.794;11.212;2022-12-07T19:14:00;30.00;;;29.00;;
1959;SDS011;980;43.794;11.212;2022-12-07T19:16:25;32.75;;;27.75;;
1959;SDS011;980;43.794;11.212;2022-12-07T19:18:50;32.25;;;27.75;;
1959;SDS011;980;43.794;11.212;2022-12-07T19:21:16;45.75;;;38.00;;
1959;SDS011;980;43.794;11.212;2022-12-07T19:23:41;33.75;;;31.00;;
1959;SDS011;980;43.794;11.212;2022-12-07T19:26:06;37.25;;;32.25;;
1959;SDS011;980;43.794;11.212;2022-12-07T19:28:31;34.00;;;34.00;;
1959;SDS011;980;43.794;11.212;2022-12-07T19:30:57;33.00;;;33.00;;
1959;SDS011;980;43.794;11.212;2022-12-07T19:33:22;40.75;;;36.25;;
1959;SDS011;980;43.794;11.212;2022-12-07T19:35:47;33.00;;;32.50;;
1959;SDS011;980;43.794;11.212;2022-12-07T19:38:12;36.75;;;34.25;;
1959;SDS011;980;43.794;11.212;2022-12-07T19:40:38;26.00;;;25.75;;
1959;SDS011;980;43.794;11.212;2022-12-07T19:43:03;35.75;;;29.25;;
1959;SDS011;980;43.794;11.212;2022-12-07T19:45:28;29.50;;;22.75;;
1959;SDS011;980;43.794;11.212;2022-12-07T19:47:56;39.75;;;33.75;;
1959;SDS011;980;43.794;11.212;2022-12-07T19:50:21;30.75;;;28.00;;
1959;SDS011;980;43.794;11.212;2022-12-07T19:52:47;36.75;;;33.25;;
1959;SDS011;980;43.794;11.212;2022-12-07T19:55:12;32.00;;;28.75;;
1959;SDS011;980;43.794;11.212;2022-12-07T19:57:37;29.00;;;23.25;;
1959;SDS011;980;43.794;11.212;2022-12-07T20:00:02;28.50;;;26.50;;
1959;SDS011;980;43.794;11.212;2022-12-07T20:02:29;30.75;;;27.50;;
1959;SDS011;980;43.794;11.212;2022-12-07T20:04:54;36.50;;;34.75;;
1959;SDS011;980;43.794;11.212;2022-12-07T20:07:19;35.00;;;31.75;;
1959;SDS011;980;43.794;11.212;2022-12-07T20:09:45;30.75;;;26.75;;
1959;SDS011;980;43.794;11.212;2022-12-07T20:12:10;33.50;;;31.25;;
1959;SDS011;980;43.794;11.212;2022-12-07T20:14:54;29.50;;;22.75;;
1959;SDS011;980;43.794;11.212;2022-12-07T20:17:19;28.00;;;26.75;;
1959;SDS011;980;43.794;11.212;2022-12-07T20:19:45;27.00;;;24.50;;
1959;SDS011;980;43.794;11.212;2022-12-07T20:22:11;26.50;;;21.50;;
1959;SDS011;980;43.794;11.212;2022-12-07T20:24:36;26.50;;;21.75;;
1959;SDS011;980;43.794;11.212;2022-12-07T20:27:02;28.50;;;26.25;;
1959;SDS011;980;43.794;11.212;2022-12-07T20:29:28;26.00;;;25.00;;
1959;SDS011;980;43.794;11.212;2022-12-07T20:31:53;21.75;;;20.00;;
1959;SDS011;980;43.794;11.212;2022-12-07T20:34:19;24.00;;;20.25;;
1959;SDS011;980;43.794;11.212;2022-12-07T20:36:44;27.00;;;22.00;;
1959;SDS011;980;43.794;11.212;2022-12-07T20:39:10;26.25;;;23.75;;
1959;SDS011;980;43.794;11.212;2022-12-07T20:41:35;22.25;;;21.50;;
1959;SDS011;980;43.794;11.212;2022-12-07T20:44:20;22.75;;;21.75;;
1959;SDS011;980;43.794;11.212;2022-12-07T20:46:46;25.00;;;21.75;;
1959;SDS011;980;43.794;11.212;2022-12-07T20:49:12;24.25;;;21.75;;
1959;SDS011;980;43.794;11.212;2022-12-07T20:51:39;24.75;;;20.75;;
1959;SDS011;980;43.794;11.212;2022-12-07T20:54:04;23.50;;;21.25;;
1959;SDS011;980;43.794;11.212;2022-12-07T20:56:30;21.25;;;19.00;;
1959;SDS011;980;43.794;11.212;2022-12-07T20:58:57;26.75;;;25.25;;
1959;SDS011;980;43.794;11.212;2022-12-07T21:01:22;27.00;;;22.50;;
1959;SDS011;980;43.794;11.212;2022-12-07T21:03:48;30.50;;;22.50;;
1959;SDS011;980;43.794;11.212;2022-12-07T21:06:14;24.25;;;21.00;;
1959;SDS011;980;43.794;11.212;2022-12-07T21:08:43;22.00;;;22.00;;
1959;SDS011;980;43.794;11.212;2022-12-07T21:11:09;19.00;;;19.00;;
1959;SDS011;980;43.794;11.212;2022-12-07T21:13:34;28.50;;;25.75;;
1959;SDS011;980;43.794;11.212;2022-12-07T21:15:59;29.25;;;23.00;;
1959;SDS011;980;43.794;11.212;2022-12-07T21:18:25;18.50;;;15.75;;
1959;SDS011;980;43.794;11.212;2022-12-07T21:20:50;26.50;;;25.00;;
1959;SDS011;980;43.794;11.212;2022-12-07T21:23:15;31.50;;;28.25;;
1959;SDS011;980;43.794;11.212;2022-12-07T21:25:41;31.00;;;26.75;;
1959;SDS011;980;43.794;11.212;2022-12-07T21:28:06;29.75;;;24.00;;
1959;SDS011;980;43.794;11.212;2022-12-07T21:30:31;35.75;;;28.50;;
1959;SDS011;980;43.794;11.212;2022-12-07T21:32:56;26.75;;;26.00;;
1959;SDS011;980;43.794;11.212;2022-12-07T21:35:22;29.00;;;21.75;;
1959;SDS011;980;43.794;11.212;2022-12-07T21:37:47;22.00;;;22.00;;
1959;SDS011;980;43.794;11.212;2022-12-07T21:40:12;26.25;;;23.00;;
1959;SDS011;980;43.794;11.212;2022-12-07T21:42:37;23.50;;;22.50;;
1959;SDS011;980;43.794;11.212;2022-12-07T21:45:03;34.25;;;25.75;;
1959;SDS011;980;43.794;11.212;2022-12-07T21:47:28;27.00;;;22.50;;
1959;SDS011;980;43.794;11.212;2022-12-07T21:49:54;29.50;;;23.50;;
1959;SDS011;980;43.794;11.212;2022-12-07T21:52:19;31.00;;;24.50;;
1959;SDS011;980;43.794;11.212;2022-12-07T21:54:44;27.50;;;25.50;;
1959;SDS011;980;43.794;11.212;2022-12-07T21:57:09;32.50;;;25.75;;
1959;SDS011;980;43.794;11.212;2022-12-07T21:59:35;25.25;;;23.75;;
1959;SDS011;980;43.794;11.212;2022-12-07T22:02:00;29.50;;;28.00;;
1959;SDS011;980;43.794;11.212;2022-12-07T22:04:26;35.00;;;31.50;;
1959;SDS011;980;43.794;11.212;2022-12-07T22:06:51;28.25;;;25.00;;
1959;SDS011;980;43.794;11.212;2022-12-07T22:09:17;32.25;;;27.75;;
1959;SDS011;980;43.794;11.212;2022-12-07T22:11:43;28.50;;;28.25;;
1959;SDS011;980;43.794;11.212;2022-12-07T22:14:08;26.25;;;23.50;;
1959;SDS011;980;43.794;11.212;2022-12-07T22:16:52;27.25;;;24.50;;
1959;SDS011;980;43.794;11.212;2022-12-07T22:19:18;28.50;;;26.75;;
1959;SDS011;980;43.794;11.212;2022-12-07T22:21:43;33.00;;;26.25;;
1959;SDS011;980;43.794;11.212;2022-12-07T22:24:09;30.00;;;23.00;;
1959;SDS011;980;43.794;11.212;2022-12-07T22:26:34;27.50;;;24.00;;
1959;SDS011;980;43.794;11.212;2022-12-07T22:29:00;28.50;;;26.25;;
1959;SDS011;980;43.794;11.212;2022-12-07T22:31:25;32.00;;;28.33;;
1959;SDS011;980;43.794;11.212;2022-12-07T22:33:50;28.75;;;24.75;;
1959;SDS011;980;43.794;11.212;2022-12-07T22:36:16;31.00;;;27.75;;
1959;SDS011;980;43.794;11.212;2022-12-07T22:38:41;26.25;;;21.25;;
1959;SDS011;980;43.794;11.212;2022-12-07T22:41:11;29.67;;;27.00;;
1959;SDS011;980;43.794;11.212;2022-12-07T22:43:36;26.00;;;23.75;;
1959;SDS011;980;43.794;11.212;2022-12-07T22:46:02;22.50;;;21.75;;
1959;SDS011;980;43.794;11.212;2022-12-07T22:48:27;27.75;;;24.50;;
1959;SDS011;980;43.794;11.212;2022-12-07T22:50:53;28.00;;;26.33;;
1959;SDS011;980;43.794;11.212;2022-12-07T22:53:19;27.00;;;25.25;;
1959;SDS011;980;43.794;11.212;2022-12-07T22:55:44;32.25;;;24.25;;
1959;SDS011;980;43.794;11.212;2022-12-07T22:58:10;23.50;;;20.00;;
1959;SDS011;980;43.794;11.212;2022-12-07T23:00:35;25.00;;;21.00;;
1959;SDS011;980;43.794;11.212;2022-12-07T23:03:00;27.25;;;24.25;;
1959;SDS011;980;43.794;11.212;2022-12-07T23:05:26;26.75;;;25.00;;
1959;SDS011;980;43.794;11.212;2022-12-07T23:07:51;26.00;;;23.00;;
1959;SDS011;980;43.794;11.212;2022-12-07T23:10:17;22.50;;;22.50;;
1959;SDS011;980;43.794;11.212;2022-12-07T23:12:42;29.00;;;20.00;;
1959;SDS011;980;43.794;11.212;2022-12-07T23:15:26;29.33;;;23.33;;
1959;SDS011;980;43.794;11.212;2022-12-07T23:20:29;28.33;;;26.33;;
1959;SDS011;980;43.794;11.212;2022-12-07T23:22:55;29.33;;;28.00;;
1959;SDS011;980;43.794;11.212;2022-12-07T23:25:20;29.75;;;25.50;;
1959;SDS011;980;43.794;11.212;2022-12-07T23:27:45;35.67;;;33.67;;
1959;SDS011;980;43.794;11.212;2022-12-07T23:30:10;33.00;;;29.25;;
1959;SDS011;980;43.794;11.212;2022-12-07T23:32:36;37.33;;;34.33;;
1959;SDS011;980;43.794;11.212;2022-12-07T23:35:01;37.67;;;33.67;;
1959;SDS011;980;43.794;11.212;2022-12-07T23:37:26;35.00;;;32.67;;
1959;SDS011;980;43.794;11.212;2022-12-07T23:39:51;35.33;;;32.00;;
1959;SDS011;980;43.794;11.212;2022-12-07T23:42:17;33.00;;;32.33;;
1959;SDS011;980;43.794;11.212;2022-12-07T23:44:42;44.67;;;31.00;;
1959;SDS011;980;43.794;11.212;2022-12-07T23:47:07;34.33;;;34.33;;
1959;SDS011;980;43.794;11.212;2022-12-07T23:49:32;18.00;;;17.67;;
1959;SDS011;980;43.794;11.212;2022-12-07T23:51:58;29.33;;;29.33;;
1959;SDS011;980;43.794;11.212;2022-12-07T23:54:23;34.33;;;31.33;;
1959;SDS011;980;43.794;11.212;2022-12-07T23:56:48;37.67;;;33.67;;
1959;SDS011;980;43.794;11.212;2022-12-07T23:59:13;33.67;;;30.00;;
